Time;durP1;ratioP1;P1;durP2;ratioP2;P2;SDS_P1;SDS_P2;PMS_P1;PMS_P2;Temp;Humidity;BMP_temperature;BMP_pressure;BME280_temperature;BME280_humidity;BME280_pressure;Samples;Min_cycle;Max_cycle;Signal;HPM_P1;HPM_P2
2023/04/08 00:01:47;;;;;;;21.65;13.77;;;6.00;99.90;;;;;;4676260;28;9999758;-70
2023/04/08 00:04:13;;;;;;;18.70;12.93;;;6.00;99.90;;;;;;5013246;28;20503;-70
2023/04/08 00:06:39;;;;;;;20.83;13.35;;;6.00;99.90;;;;;;5010854;28;20068;-70
2023/04/08 00:09:05;;;;;;;22.85;13.45;;;6.00;99.90;;;;;;5015538;28;20049;-70
2023/04/08 00:11:30;;;;;;;19.38;12.95;;;5.90;99.90;;;;;;5019323;28;20033;-70
2023/04/08 00:13:56;;;;;;;20.25;13.77;;;6.00;99.90;;;;;;5013467;28;20463;-70
2023/04/08 00:16:21;;;;;;;18.45;12.93;;;6.00;99.90;;;;;;5013914;28;20040;-70
2023/04/08 00:18:48;;;;;;;23.67;13.75;;;5.90;99.90;;;;;;5011267;28;20421;-70
2023/04/08 00:21:16;;;;;;;20.55;13.48;;;6.00;99.90;;;;;;5013077;28;20109;-70
2023/04/08 00:23:42;;;;;;;18.45;12.63;;;5.90;99.90;;;;;;5017908;28;20120;-70
2023/04/08 00:26:08;;;;;;;20.73;13.77;;;5.90;99.90;;;;;;5018504;28;20141;-70
2023/04/08 00:28:34;;;;;;;16.50;11.90;;;5.90;99.90;;;;;;5012585;28;20525;-70
2023/04/08 00:30:59;;;;;;;17.20;12.27;;;5.90;99.90;;;;;;5023256;28;20613;-70
2023/04/08 00:33:25;;;;;;;21.42;13.40;;;5.90;99.90;;;;;;5017734;28;20597;-71
2023/04/08 00:35:51;;;;;;;20.58;11.45;;;5.90;99.90;;;;;;5020515;28;20029;-71
2023/04/08 00:38:16;;;;;;;18.40;12.48;;;5.90;99.90;;;;;;5015244;28;20549;-70
2023/04/08 00:40:42;;;;;;;17.02;12.00;;;5.90;99.90;;;;;;5016213;28;20438;-71
2023/04/08 00:43:08;;;;;;;20.52;12.48;;;5.90;99.90;;;;;;5020859;28;20034;-71
2023/04/08 00:45:33;;;;;;;19.92;12.45;;;5.80;99.90;;;;;;5018621;28;20038;-70
2023/04/08 00:48:00;;;;;;;18.85;12.48;;;5.90;99.90;;;;;;5011627;28;20044;-70
2023/04/08 00:50:26;;;;;;;18.55;12.23;;;5.80;99.90;;;;;;5011663;28;20098;-71
2023/04/08 00:52:51;;;;;;;16.73;11.50;;;5.80;99.90;;;;;;5011742;28;20038;-70
2023/04/08 00:55:17;;;;;;;19.13;13.13;;;5.80;99.90;;;;;;5012056;28;20033;-71
2023/04/08 00:57:43;;;;;;;17.55;13.27;;;5.70;99.90;;;;;;5030409;28;20026;-70
2023/04/08 01:00:09;;;;;;;18.75;13.43;;;5.50;99.90;;;;;;5012035;28;20075;-70
2023/04/08 01:02:56;;;;;;;17.77;13.70;;;5.30;99.90;;;;;;5011447;28;20029;-71
2023/04/08 01:05:37;;;;;;;17.10;12.43;;;5.10;99.90;;;;;;5015275;28;20068;-71
2023/04/08 01:08:06;;;;;;;19.75;14.20;;;4.80;99.90;;;;;;5011302;28;20490;-70
2023/04/08 01:10:33;;;;;;;18.55;13.77;;;4.70;99.90;;;;;;5014865;28;20060;-70
2023/04/08 01:13:04;;;;;;;19.05;14.15;;;4.50;99.90;;;;;;5024213;28;20045;-71
2023/04/08 01:15:32;;;;;;;19.55;15.02;;;4.40;99.90;;;;;;5014701;28;20025;-70
2023/04/08 01:17:59;;;;;;;19.45;14.90;;;4.30;99.90;;;;;;5014248;28;20044;-70
2023/04/08 01:20:27;;;;;;;21.05;15.63;;;4.30;99.90;;;;;;5015697;28;20033;-71
2023/04/08 01:23:11;;;;;;;23.02;15.95;;;4.20;99.90;;;;;;5022040;28;20038;-70
2023/04/08 01:25:37;;;;;;;20.90;14.63;;;4.10;99.90;;;;;;5010487;28;20132;-70
2023/04/08 01:28:14;;;;;;;19.15;14.63;;;4.10;99.90;;;;;;5012319;28;20688;-70
2023/04/08 01:30:41;;;;;;;21.90;15.25;;;4.10;99.90;;;;;;5022480;28;20038;-71
2023/04/08 01:33:10;;;;;;;19.67;14.32;;;4.10;99.90;;;;;;5015707;28;20037;-70
2023/04/08 01:35:36;;;;;;;18.88;14.30;;;4.10;99.90;;;;;;5012655;28;20410;-70
2023/04/08 01:38:05;;;;;;;19.98;14.43;;;4.10;99.90;;;;;;5013143;28;20481;-70
2023/04/08 01:40:33;;;;;;;19.27;13.57;;;4.20;99.90;;;;;;5019075;28;20033;-70
2023/04/08 01:43:00;;;;;;;18.88;13.82;;;4.20;99.90;;;;;;5023839;28;20042;-71
2023/04/08 01:45:27;;;;;;;20.48;14.63;;;4.20;99.90;;;;;;5021229;28;20026;-71
2023/04/08 01:47:54;;;;;;;20.95;13.68;;;4.20;99.90;;;;;;5020358;28;20398;-70
2023/04/08 01:50:20;;;;;;;21.02;14.30;;;4.20;99.90;;;;;;5018657;28;20532;-71
2023/04/08 01:52:48;;;;;;;16.88;12.55;;;4.30;99.90;;;;;;5010453;28;20112;-71
2023/04/08 01:55:14;;;;;;;19.45;13.85;;;4.30;99.90;;;;;;5010245;28;20471;-70
2023/04/08 01:57:43;;;;;;;19.77;14.27;;;4.40;99.90;;;;;;5014055;28;20029;-71
2023/04/08 02:00:11;;;;;;;20.55;13.63;;;4.40;99.90;;;;;;5015577;28;20026;-70
2023/04/08 02:02:40;;;;;;;18.00;12.88;;;4.40;99.90;;;;;;5015110;28;20074;-70
2023/04/08 02:05:06;;;;;;;17.40;12.48;;;4.50;99.90;;;;;;5010038;28;20018;-70
2023/04/08 02:07:31;;;;;;;18.27;13.73;;;4.50;99.90;;;;;;5009309;28;20018;-70
2023/04/08 02:09:57;;;;;;;18.80;14.00;;;4.60;99.90;;;;;;5021772;28;20021;-70
2023/04/08 02:12:24;;;;;;;19.65;13.73;;;4.60;99.90;;;;;;5018736;28;20139;-70
2023/04/08 02:14:50;;;;;;;20.65;14.38;;;4.50;99.90;;;;;;5010566;28;20032;-70
2023/04/08 02:17:28;;;;;;;22.38;15.48;;;4.60;99.90;;;;;;5015651;28;20033;-70
2023/04/08 02:20:06;;;;;;;23.60;16.13;;;4.60;99.90;;;;;;5015978;28;20022;-70
2023/04/08 02:22:46;;;;;;;25.00;17.13;;;4.60;99.90;;;;;;5011500;28;20498;-70
2023/04/08 02:25:16;;;;;;;29.45;20.92;;;4.60;99.90;;;;;;5018663;28;20046;-70
2023/04/08 02:27:44;;;;;;;27.40;18.70;;;4.50;99.90;;;;;;5012738;28;20057;-70
2023/04/08 02:30:11;;;;;;;24.52;17.20;;;4.50;99.90;;;;;;5019375;28;20022;-70
2023/04/08 02:32:37;;;;;;;24.67;17.55;;;4.50;99.90;;;;;;5021719;28;20064;-70
2023/04/08 02:35:04;;;;;;;25.48;17.55;;;4.40;99.90;;;;;;5026146;28;20503;-70
2023/04/08 02:37:33;;;;;;;23.58;16.83;;;4.40;99.90;;;;;;5014002;28;20386;-70
2023/04/08 02:39:59;;;;;;;27.05;17.13;;;4.40;99.90;;;;;;5021197;28;20537;-70
2023/04/08 02:42:25;;;;;;;21.50;15.68;;;4.40;99.90;;;;;;5013795;28;20022;-70
2023/04/08 02:44:50;;;;;;;21.83;15.63;;;4.40;99.90;;;;;;5016388;28;20116;-70
2023/04/08 02:47:16;;;;;;;18.90;14.40;;;4.40;99.90;;;;;;5020816;28;20060;-70
2023/04/08 02:49:42;;;;;;;20.25;14.20;;;4.40;99.90;;;;;;5015899;28;20041;-71
2023/04/08 02:52:07;;;;;;;18.65;13.93;;;4.40;99.90;;;;;;5011187;28;20022;-70
2023/04/08 02:54:33;;;;;;;19.52;13.30;;;4.40;99.90;;;;;;5011434;28;20023;-70
2023/04/08 02:56:58;;;;;;;20.60;14.57;;;4.40;99.90;;;;;;5015190;28;20026;-70
2023/04/08 02:59:24;;;;;;;20.75;13.95;;;4.50;99.90;;;;;;5010146;28;20034;-70
2023/04/08 03:01:50;;;;;;;18.73;13.00;;;4.50;99.90;;;;;;5025030;28;20036;-71
2023/04/08 03:04:15;;;;;;;19.75;14.38;;;4.50;99.90;;;;;;5012027;28;20033;-70
2023/04/08 03:06:41;;;;;;;18.10;13.65;;;4.50;99.90;;;;;;5006924;28;20056;-70
2023/04/08 03:09:06;;;;;;;22.00;14.38;;;4.50;99.90;;;;;;5020361;28;20078;-71
2023/04/08 03:11:32;;;;;;;20.25;14.20;;;4.50;99.90;;;;;;5022740;28;20118;-70
2023/04/08 03:13:58;;;;;;;20.42;13.88;;;4.50;99.90;;;;;;5012256;28;20017;-70
2023/04/08 03:16:24;;;;;;;17.10;13.07;;;4.50;99.90;;;;;;5020021;28;20026;-71
2023/04/08 03:18:50;;;;;;;19.60;14.10;;;4.50;99.90;;;;;;5013830;28;20045;-71
2023/04/08 03:21:16;;;;;;;18.13;13.38;;;4.50;99.90;;;;;;5029222;28;20029;-70
2023/04/08 03:23:41;;;;;;;17.75;12.77;;;4.50;99.90;;;;;;5017979;28;20036;-70
2023/04/08 03:26:07;;;;;;;21.52;14.45;;;4.60;99.90;;;;;;5028436;28;20046;-70
2023/04/08 03:28:33;;;;;;;20.80;15.10;;;4.60;99.90;;;;;;5027923;28;20108;-70
2023/04/08 03:30:59;;;;;;;19.90;14.07;;;4.60;99.90;;;;;;5012228;28;20126;-70
2023/04/08 03:33:25;;;;;;;17.02;13.05;;;4.70;99.90;;;;;;5027019;28;20128;-71
2023/04/08 03:35:52;;;;;;;16.75;12.57;;;4.60;99.90;;;;;;5008946;28;20105;-70
2023/04/08 03:38:18;;;;;;;18.85;13.82;;;4.60;99.90;;;;;;5008761;28;20439;-70
2023/04/08 03:40:43;;;;;;;16.80;13.15;;;4.60;99.90;;;;;;5008670;28;20101;-70
2023/04/08 03:43:10;;;;;;;18.40;13.90;;;4.60;99.90;;;;;;5025160;28;20033;-70
2023/04/08 03:45:36;;;;;;;18.73;14.32;;;4.70;99.90;;;;;;5019648;28;20433;-70
2023/04/08 03:48:02;;;;;;;21.65;15.85;;;4.80;99.90;;;;;;5025165;28;20036;-70
2023/04/08 03:50:27;;;;;;;22.50;15.63;;;4.80;99.90;;;;;;5024401;28;20259;-70
2023/04/08 03:52:53;;;;;;;20.63;15.57;;;4.90;99.90;;;;;;5015201;28;20533;-70
2023/04/08 03:55:19;;;;;;;22.40;16.20;;;5.00;99.90;;;;;;5020992;28;20438;-70
2023/04/08 03:57:44;;;;;;;22.90;16.52;;;5.10;99.90;;;;;;5021535;28;20014;-70
2023/04/08 04:00:11;;;;;;;22.38;15.88;;;5.10;99.90;;;;;;5022264;28;20049;-70
2023/04/08 04:02:36;;;;;;;23.73;16.75;;;5.10;99.90;;;;;;5010132;28;20030;-70
2023/04/08 04:05:02;;;;;;;22.08;16.17;;;5.10;99.90;;;;;;5017847;28;20026;-70
2023/04/08 04:07:27;;;;;;;22.55;16.15;;;5.10;99.90;;;;;;5016078;28;20034;-70
2023/04/08 04:09:55;;;;;;;22.80;16.13;;;5.00;99.90;;;;;;5019333;28;20068;-70
2023/04/08 04:12:21;;;;;;;20.92;14.93;;;5.00;99.90;;;;;;5019369;28;20026;-70
2023/04/08 04:14:47;;;;;;;19.30;14.57;;;4.90;99.90;;;;;;5019926;28;20029;-70
2023/04/08 04:17:13;;;;;;;18.60;13.40;;;4.90;99.90;;;;;;5010293;28;20057;-70
2023/04/08 04:19:38;;;;;;;17.90;13.35;;;4.90;99.90;;;;;;5015871;28;20033;-70
2023/04/08 04:22:04;;;;;;;16.67;12.90;;;4.90;99.90;;;;;;5013698;28;20482;-72
2023/04/08 04:24:29;;;;;;;19.02;13.73;;;4.90;99.90;;;;;;5021948;28;20057;-69
2023/04/08 04:26:55;;;;;;;20.20;13.75;;;5.00;99.90;;;;;;5025571;28;20037;-69
2023/04/08 04:29:21;;;;;;;20.45;14.20;;;5.00;99.90;;;;;;5031022;28;20381;-69
2023/04/08 04:31:46;;;;;;;20.77;15.57;;;5.00;99.90;;;;;;5021407;28;20036;-69
2023/04/08 04:34:12;;;;;;;23.52;16.95;;;5.00;99.90;;;;;;5027694;28;20657;-69
2023/04/08 04:36:37;;;;;;;24.02;16.95;;;4.90;99.90;;;;;;5025383;28;20430;-69
2023/04/08 04:39:03;;;;;;;20.33;15.35;;;4.80;99.90;;;;;;5020635;28;20040;-69
2023/04/08 04:41:29;;;;;;;21.25;15.35;;;4.70;99.90;;;;;;5025085;28;20034;-69
2023/04/08 04:43:54;;;;;;;20.85;15.80;;;4.70;99.90;;;;;;5031771;28;20477;-69
2023/04/08 04:46:20;;;;;;;24.38;16.42;;;4.70;99.90;;;;;;5022541;28;20076;-69
2023/04/08 04:48:45;;;;;;;21.60;15.93;;;4.70;99.90;;;;;;5019793;28;20030;-69
2023/04/08 04:51:11;;;;;;;21.08;15.55;;;4.70;99.90;;;;;;5027743;28;20083;-69
2023/04/08 04:53:37;;;;;;;19.60;14.77;;;4.80;99.90;;;;;;5030836;28;20025;-69
2023/04/08 04:56:02;;;;;;;21.38;16.15;;;4.90;99.90;;;;;;5028161;28;20429;-69
2023/04/08 04:58:28;;;;;;;19.20;14.60;;;5.00;99.90;;;;;;5026264;28;20029;-69
2023/04/08 05:00:55;;;;;;;20.05;15.00;;;5.00;99.90;;;;;;5030687;28;20034;-69
2023/04/08 05:03:21;;;;;;;21.92;15.75;;;4.90;99.90;;;;;;5016465;28;20026;-69
2023/04/08 05:05:51;;;;;;;20.10;14.18;;;4.90;99.90;;;;;;5018211;28;20029;-69
2023/04/08 05:08:16;;;;;;;19.08;15.00;;;4.90;99.90;;;;;;5027216;28;20183;-69
2023/04/08 05:10:42;;;;;;;20.13;14.75;;;4.90;99.90;;;;;;5017776;28;20140;-69
2023/04/08 05:13:07;;;;;;;20.70;15.52;;;5.00;99.90;;;;;;5015267;28;20033;-69
2023/04/08 05:15:33;;;;;;;19.17;14.80;;;5.00;99.90;;;;;;5015395;28;20100;-69
2023/04/08 05:17:59;;;;;;;21.77;15.50;;;5.00;99.90;;;;;;5028927;28;20029;-69
2023/04/08 05:20:24;;;;;;;19.02;14.85;;;5.00;99.90;;;;;;5018524;28;20030;-69
2023/04/08 05:22:50;;;;;;;18.55;13.43;;;5.20;99.90;;;;;;5020136;28;20443;-69
2023/04/08 05:25:15;;;;;;;17.38;13.20;;;5.30;99.90;;;;;;5015478;28;20447;-69
2023/04/08 05:27:41;;;;;;;19.63;14.20;;;5.40;99.90;;;;;;5026183;28;20030;-69
2023/04/08 05:30:07;;;;;;;20.77;13.27;;;5.50;99.90;;;;;;5028987;28;20770;-69
2023/04/08 05:32:33;;;;;;;16.10;12.38;;;5.60;99.90;;;;;;5022579;28;20221;-69
2023/04/08 05:35:01;;;;;;;16.30;11.73;;;5.60;99.90;;;;;;5008361;28;20033;-69
2023/04/08 05:37:27;;;;;;;20.98;12.75;;;5.70;99.90;;;;;;5010621;28;20057;-70
2023/04/08 05:39:52;;;;;;;20.00;12.32;;;5.70;99.90;;;;;;5011900;28;20107;-70
2023/04/08 05:42:18;;;;;;;15.35;11.75;;;5.80;99.90;;;;;;5007681;28;20030;-70
2023/04/08 05:44:44;;;;;;;18.83;13.15;;;5.80;99.90;;;;;;5010353;28;20099;-70
2023/04/08 05:47:09;;;;;;;16.75;12.43;;;5.80;99.90;;;;;;5011870;28;20285;-70
2023/04/08 05:49:35;;;;;;;18.23;13.15;;;5.90;99.90;;;;;;5016387;28;20033;-70
2023/04/08 05:52:01;;;;;;;19.15;13.52;;;5.90;99.90;;;;;;5012350;28;20371;-70
2023/04/08 05:54:26;;;;;;;19.35;13.43;;;5.90;99.90;;;;;;5027349;28;20026;-70
2023/04/08 05:56:52;;;;;;;23.35;13.75;;;5.90;99.90;;;;;;5022405;28;20045;-70
2023/04/08 05:59:18;;;;;;;17.90;13.50;;;5.90;99.90;;;;;;5017484;28;20034;-70
2023/04/08 06:01:43;;;;;;;22.85;14.45;;;5.90;99.90;;;;;;5014790;28;20044;-71
2023/04/08 06:04:09;;;;;;;20.75;13.80;;;5.90;99.90;;;;;;5028084;28;20025;-70
2023/04/08 06:06:37;;;;;;;19.80;14.45;;;5.90;99.90;;;;;;5009877;28;20025;-70
2023/04/08 06:09:03;;;;;;;19.88;14.32;;;6.00;99.90;;;;;;5006537;28;20625;-70
2023/04/08 06:11:28;;;;;;;22.35;15.07;;;6.00;99.90;;;;;;5019302;28;20029;-70
2023/04/08 06:13:54;;;;;;;22.98;15.00;;;5.90;99.90;;;;;;5019366;28;20501;-69
2023/04/08 06:16:20;;;;;;;21.85;14.40;;;6.00;99.90;;;;;;5017556;28;20021;-70
2023/04/08 06:18:46;;;;;;;20.85;15.02;;;6.00;99.90;;;;;;5015412;28;20108;-70
2023/04/08 06:21:11;;;;;;;20.00;14.73;;;6.00;99.90;;;;;;5019217;28;20033;-70
2023/04/08 06:23:37;;;;;;;19.63;14.10;;;6.00;99.90;;;;;;5012794;28;20164;-70
2023/04/08 06:26:03;;;;;;;20.63;14.95;;;6.00;99.90;;;;;;5016894;28;20053;-70
2023/04/08 06:28:30;;;;;;;21.25;15.13;;;6.00;99.90;;;;;;5016579;28;20184;-70
2023/04/08 06:30:56;;;;;;;19.50;14.00;;;6.10;99.90;;;;;;5014499;28;20113;-70
2023/04/08 06:33:22;;;;;;;21.25;14.15;;;6.10;99.90;;;;;;5016024;28;20034;-70
2023/04/08 06:35:47;;;;;;;20.80;14.38;;;6.10;99.90;;;;;;5014445;28;20076;-70
2023/04/08 06:38:13;;;;;;;23.25;15.27;;;6.10;99.90;;;;;;5011735;28;20034;-70
2023/04/08 06:40:39;;;;;;;24.95;15.30;;;6.10;99.90;;;;;;5007072;28;20046;-70
2023/04/08 06:43:07;;;;;;;21.60;15.20;;;6.10;99.90;;;;;;5023264;28;20037;-70
2023/04/08 06:45:34;;;;;;;20.85;15.10;;;6.10;99.90;;;;;;5021551;28;20124;-70
2023/04/08 06:48:00;;;;;;;23.27;15.68;;;6.10;99.90;;;;;;5013037;28;20032;-70
2023/04/08 06:50:25;;;;;;;22.60;15.98;;;6.20;99.90;;;;;;5008436;28;20037;-70
2023/04/08 06:52:51;;;;;;;27.08;17.27;;;6.10;99.90;;;;;;4999616;28;20391;-70
2023/04/08 06:55:16;;;;;;;22.98;16.40;;;6.20;99.90;;;;;;4996663;28;20022;-70
2023/04/08 06:57:42;;;;;;;26.30;17.35;;;6.20;99.90;;;;;;5011941;28;20124;-70
2023/04/08 07:00:08;;;;;;;26.27;17.55;;;6.30;99.90;;;;;;5009518;28;20087;-70
2023/04/08 07:02:34;;;;;;;25.38;17.83;;;6.30;99.90;;;;;;5011719;28;20030;-70
2023/04/08 07:05:28;;;;;;;25.20;17.83;;;6.30;99.90;;;;;;5015720;28;20391;-70
2023/04/08 07:07:54;;;;;;;28.20;18.45;;;6.40;99.90;;;;;;5003428;28;20429;-70
2023/04/08 07:10:20;;;;;;;28.33;18.48;;;6.30;99.90;;;;;;5020570;28;20049;-70
2023/04/08 07:12:45;;;;;;;31.42;19.63;;;6.40;99.90;;;;;;5012081;28;21189;-71
2023/04/08 07:15:11;;;;;;;28.58;19.38;;;6.60;99.90;;;;;;5008463;28;20083;-70
2023/04/08 07:17:36;;;;;;;28.65;19.63;;;6.50;99.90;;;;;;5008082;28;20025;-70
2023/04/08 07:20:03;;;;;;;29.50;20.15;;;6.20;99.90;;;;;;5022131;28;20536;-70
2023/04/08 07:22:28;;;;;;;31.88;21.55;;;6.50;99.90;;;;;;5014294;28;20034;-70
2023/04/08 07:24:54;;;;;;;31.13;19.95;;;6.40;99.90;;;;;;5020604;28;20056;-70
2023/04/08 07:27:20;;;;;;;32.30;20.98;;;6.30;99.90;;;;;;5013557;28;20030;-70
2023/04/08 07:29:45;;;;;;;33.95;21.50;;;6.40;99.90;;;;;;5016606;28;20030;-70
2023/04/08 07:32:11;;;;;;;39.10;23.10;;;6.40;99.90;;;;;;5010858;28;20041;-70
2023/04/08 07:34:37;;;;;;;32.75;22.15;;;6.30;99.90;;;;;;5015188;28;20022;-70
2023/04/08 07:37:02;;;;;;;34.90;22.63;;;6.30;99.90;;;;;;5016813;28;20721;-70
2023/04/08 07:39:28;;;;;;;37.00;22.75;;;6.30;99.90;;;;;;5011018;28;20285;-70
2023/04/08 07:41:53;;;;;;;36.53;23.42;;;6.30;99.90;;;;;;5014624;28;20029;-70
2023/04/08 07:44:19;;;;;;;37.60;23.65;;;6.30;99.90;;;;;;5025294;28;20509;-70
2023/04/08 07:46:48;;;;;;;39.22;24.98;;;6.30;99.90;;;;;;5022698;28;20075;-70
2023/04/08 07:49:13;;;;;;;37.42;24.30;;;6.40;99.90;;;;;;5015175;28;20042;-70
2023/04/08 07:51:39;;;;;;;38.90;25.38;;;6.50;99.90;;;;;;5015656;28;20026;-70
2023/04/08 07:54:04;;;;;;;43.75;25.70;;;6.50;99.90;;;;;;5011466;28;20089;-70
2023/04/08 07:56:30;;;;;;;40.22;25.70;;;6.50;99.90;;;;;;5008743;28;20030;-70
2023/04/08 07:58:56;;;;;;;40.00;24.95;;;6.40;99.90;;;;;;5011571;28;20088;-70
2023/04/08 08:01:23;;;;;;;44.80;25.88;;;6.30;99.90;;;;;;5027059;28;20083;-70
2023/04/08 08:03:50;;;;;;;40.58;26.38;;;6.40;99.90;;;;;;5006705;28;20034;-70
2023/04/08 08:06:16;;;;;;;42.28;26.33;;;6.40;99.90;;;;;;5012097;28;20502;-70
2023/04/08 08:08:42;;;;;;;39.17;25.25;;;6.40;99.90;;;;;;5019468;28;20030;-70
2023/04/08 08:11:07;;;;;;;40.15;25.45;;;6.40;99.90;;;;;;5021358;28;20044;-70
2023/04/08 08:13:33;;;;;;;37.85;25.65;;;6.50;99.90;;;;;;5013880;28;20489;-70
2023/04/08 08:15:59;;;;;;;38.00;24.02;;;6.50;99.90;;;;;;5017000;28;20026;-70
2023/04/08 08:18:25;;;;;;;37.75;24.40;;;6.50;99.90;;;;;;5015968;28;20405;-70
2023/04/08 08:20:50;;;;;;;38.33;23.80;;;6.50;99.90;;;;;;5016899;28;20149;-70
2023/04/08 08:23:17;;;;;;;37.15;23.60;;;6.50;99.90;;;;;;5012801;28;20260;-70
2023/04/08 08:25:43;;;;;;;37.20;23.05;;;6.70;99.90;;;;;;5014358;28;20046;-70
2023/04/08 08:28:09;;;;;;;33.72;22.00;;;6.70;99.90;;;;;;5011160;28;20108;-69
2023/04/08 08:30:34;;;;;;;33.22;22.27;;;6.70;99.90;;;;;;5010824;28;20037;-70
2023/04/08 08:33:00;;;;;;;33.10;21.42;;;6.70;99.90;;;;;;5016185;28;20053;-71
2023/04/08 08:35:26;;;;;;;33.53;21.90;;;6.80;99.90;;;;;;5010726;28;20033;-71
2023/04/08 08:37:51;;;;;;;30.02;20.73;;;6.80;99.90;;;;;;5012033;28;20052;-71
2023/04/08 08:40:17;;;;;;;29.38;19.88;;;6.90;99.90;;;;;;5019237;28;20105;-71
2023/04/08 08:42:51;;;;;;;31.15;20.90;;;6.90;99.90;;;;;;5019433;28;20422;-71
2023/04/08 08:45:19;;;;;;;34.28;21.25;;;7.00;99.90;;;;;;5021747;28;20494;-71
2023/04/08 08:47:45;;;;;;;32.95;21.02;;;7.00;99.90;;;;;;5022328;28;20084;-71
2023/04/08 08:50:11;;;;;;;31.25;20.80;;;7.10;99.90;;;;;;5016323;28;20025;-70
2023/04/08 08:52:36;;;;;;;29.75;20.80;;;7.10;99.90;;;;;;5015601;28;20399;-71
2023/04/08 08:55:02;;;;;;;30.63;20.63;;;7.20;99.90;;;;;;5013974;28;20482;-71
2023/04/08 08:57:28;;;;;;;32.63;21.00;;;7.20;99.90;;;;;;5015800;28;20117;-71
2023/04/08 08:59:53;;;;;;;27.52;19.67;;;7.30;99.90;;;;;;5010763;28;20033;-71
2023/04/08 09:02:27;;;;;;;29.92;20.08;;;7.30;99.90;;;;;;5011493;28;20026;-71
2023/04/08 09:04:58;;;;;;;27.90;19.88;;;7.30;99.90;;;;;;5011908;28;20418;-71
2023/04/08 09:07:28;;;;;;;28.67;20.02;;;7.30;99.90;;;;;;5016247;28;20034;-71
2023/04/08 09:09:55;;;;;;;29.02;20.02;;;7.30;99.90;;;;;;5018150;28;20036;-71
2023/04/08 09:12:21;;;;;;;30.35;20.23;;;7.30;99.90;;;;;;5020107;28;20026;-71
2023/04/08 09:14:47;;;;;;;31.95;21.20;;;7.20;99.90;;;;;;5013460;28;20030;-71
2023/04/08 09:17:13;;;;;;;27.77;19.67;;;7.20;99.90;;;;;;5017871;28;20116;-71
2023/04/08 09:19:39;;;;;;;29.75;20.00;;;7.10;99.90;;;;;;5014171;28;20033;-71
2023/04/08 09:22:06;;;;;;;26.95;19.45;;;7.10;99.90;;;;;;5011026;28;20034;-71
2023/04/08 09:24:32;;;;;;;32.15;21.10;;;7.10;99.90;;;;;;5016603;28;20115;-71
2023/04/08 09:26:57;;;;;;;31.33;21.08;;;7.10;99.90;;;;;;5019996;28;20490;-72
2023/04/08 09:29:25;;;;;;;28.90;21.05;;;7.10;99.90;;;;;;5025418;28;20034;-70
2023/04/08 09:31:58;;;;;;;41.30;26.13;;;7.20;99.90;;;;;;5011234;28;20030;-71
2023/04/08 09:34:26;;;;;;;36.92;24.42;;;7.20;99.90;;;;;;5024739;28;20091;-71
2023/04/08 09:36:52;;;;;;;33.72;22.77;;;7.20;99.90;;;;;;5025713;28;20470;-71
2023/04/08 09:39:18;;;;;;;30.05;20.88;;;7.40;99.90;;;;;;5018395;28;20445;-71
2023/04/08 09:41:46;;;;;;;30.08;21.35;;;7.50;99.90;;;;;;5015854;28;20113;-71
2023/04/08 09:44:15;;;;;;;29.05;20.52;;;7.60;99.90;;;;;;5010473;28;20053;-71
2023/04/08 09:46:55;;;;;;;27.83;19.65;;;7.60;99.90;;;;;;5011945;28;20034;-71
2023/04/08 09:49:54;;;;;;;31.25;18.95;;;7.70;99.90;;;;;;5018312;28;20034;-71
2023/04/08 09:52:53;;;;;;;26.42;19.63;;;7.70;99.90;;;;;;5015058;28;20056;-71
2023/04/08 09:55:22;;;;;;;28.88;19.33;;;7.80;99.90;;;;;;5010980;28;20038;-71
2023/04/08 09:58:01;;;;;;;25.52;18.40;;;7.70;99.90;;;;;;5006989;28;20060;-70
2023/04/08 10:00:49;;;;;;;26.92;18.40;;;7.80;99.90;;;;;;5007705;28;20104;-71
2023/04/08 10:03:35;;;;;;;25.15;17.67;;;7.70;99.90;;;;;;5009380;28;20330;-70
2023/04/08 10:06:02;;;;;;;24.95;18.02;;;7.70;99.90;;;;;;5009962;28;20112;-71
2023/04/08 10:08:29;;;;;;;23.52;17.25;;;7.70;99.90;;;;;;5008222;28;20037;-71
2023/04/08 10:10:56;;;;;;;24.02;17.65;;;;;;;;;;5026190;28;20482;-70
2023/04/08 10:13:22;;;;;;;26.20;18.25;;;7.70;99.90;;;;;;5013667;28;20053;-71
2023/04/08 10:15:48;;;;;;;24.02;18.20;;;7.70;99.90;;;;;;5015553;28;20030;-71
2023/04/08 10:18:17;;;;;;;24.52;17.05;;;7.70;99.90;;;;;;5015672;28;20458;-71
2023/04/08 10:20:43;;;;;;;23.05;16.27;;;7.80;99.90;;;;;;5010912;28;20037;-71
2023/04/08 10:23:12;;;;;;;28.45;18.05;;;7.80;99.90;;;;;;5014323;28;20123;-71
2023/04/08 10:25:48;;;;;;;23.33;16.45;;;8.00;99.90;;;;;;5013272;28;20078;-71
2023/04/08 10:28:14;;;;;;;22.77;16.23;;;8.00;99.90;;;;;;5013919;28;20033;-71
2023/04/08 10:30:56;;;;;;;24.13;16.23;;;8.10;99.90;;;;;;5018287;28;20033;-71
2023/04/08 10:33:36;;;;;;;23.90;16.13;;;8.20;99.90;;;;;;5004980;28;20056;-71
2023/04/08 10:36:12;;;;;;;20.52;14.70;;;8.30;99.90;;;;;;5008716;28;20052;-71
2023/04/08 10:38:38;;;;;;;21.02;15.43;;;8.40;99.90;;;;;;5010140;28;20572;-71
2023/04/08 10:41:04;;;;;;;19.23;14.85;;;8.50;99.90;;;;;;5004779;28;20045;-71
2023/04/08 10:43:33;;;;;;;25.42;16.77;;;8.60;99.90;;;;;;5013849;28;20684;-71
2023/04/08 10:45:59;;;;;;;19.58;15.02;;;8.60;99.90;;;;;;5013310;28;20034;-74
2023/04/08 10:48:25;;;;;;;20.38;14.88;;;8.60;99.90;;;;;;5007882;28;20605;-71
2023/04/08 10:51:01;;;;;;;21.60;15.75;;;8.70;99.90;;;;;;5012208;28;20434;-71
2023/04/08 10:53:34;;;;;;;21.45;15.05;;;8.70;99.90;;;;;;5018638;28;20033;-71
2023/04/08 10:56:14;;;;;;;21.23;15.10;;;8.70;99.90;;;;;;5011883;28;20513;-71
2023/04/08 10:58:51;;;;;;;19.13;14.40;;;8.70;99.90;;;;;;5009632;28;20037;-71
2023/04/08 11:01:17;;;;;;;19.58;14.02;;;8.70;99.90;;;;;;5014317;28;20025;-70
2023/04/08 11:03:42;;;;;;;20.55;14.43;;;8.60;99.90;;;;;;5011094;28;20034;-71
2023/04/08 11:06:08;;;;;;;19.85;14.50;;;8.70;99.90;;;;;;5014877;28;20076;-71
2023/04/08 11:08:35;;;;;;;20.25;15.32;;;8.70;99.90;;;;;;5005337;28;20038;-71
2023/04/08 11:11:02;;;;;;;25.15;17.05;;;8.70;99.90;;;;;;5012358;28;20054;-70
2023/04/08 11:13:29;;;;;;;23.85;16.58;;;8.70;99.90;;;;;;5010561;28;20498;-70
2023/04/08 11:15:58;;;;;;;26.13;16.48;;;8.60;99.90;;;;;;5011484;28;20447;-70
2023/04/08 11:18:25;;;;;;;25.17;16.88;;;;;;;;;;5008566;28;20034;-70
2023/04/08 11:20:51;;;;;;;25.25;17.63;;;;;;;;;;5016145;28;20099;-70
2023/04/08 11:23:17;;;;;;;23.00;16.73;;;;;;;;;;5016712;28;20048;-70
2023/04/08 11:25:45;;;;;;;24.30;16.40;;;8.50;99.90;;;;;;5012530;28;20044;-70
2023/04/08 11:28:12;;;;;;;24.30;15.90;;;8.40;99.90;;;;;;5017722;28;20034;-70
2023/04/08 11:30:39;;;;;;;25.75;17.58;;;8.40;99.90;;;;;;5010230;28;20465;-70
2023/04/08 11:33:05;;;;;;;29.00;18.05;;;8.40;99.90;;;;;;5021824;28;20100;-70
2023/04/08 11:35:31;;;;;;;28.08;18.88;;;8.40;99.90;;;;;;5017030;28;20101;-70
2023/04/08 11:37:57;;;;;;;29.42;18.75;;;8.40;99.90;;;;;;5011462;28;20700;-70
2023/04/08 11:40:23;;;;;;;25.38;17.55;;;8.40;99.90;;;;;;5009514;28;20817;-70
2023/04/08 11:42:50;;;;;;;28.88;17.80;;;8.50;99.90;;;;;;5014918;28;20018;-70
2023/04/08 11:45:20;;;;;;;27.65;18.33;;;8.50;99.90;;;;;;5010317;28;20026;-70
2023/04/08 11:47:47;;;;;;;26.00;17.63;;;8.50;99.90;;;;;;5010986;28;20490;-70
2023/04/08 11:50:23;;;;;;;30.67;20.13;;;8.50;99.90;;;;;;5007963;28;20038;-70
2023/04/08 11:52:50;;;;;;;30.70;20.60;;;8.50;99.90;;;;;;5021783;28;20561;-70
2023/04/08 11:55:30;;;;;;;33.55;20.52;;;8.50;99.90;;;;;;5018416;28;20026;-70
2023/04/08 11:58:04;;;;;;;30.80;19.35;;;8.60;99.90;;;;;;5016409;28;20033;-70
2023/04/08 12:00:31;;;;;;;30.88;17.88;;;8.90;99.90;;;;;;5016578;28;20042;-71
2023/04/08 12:02:57;;;;;;;31.55;19.05;;;9.20;99.90;;;;;;5015242;28;20049;-70
2023/04/08 12:05:23;;;;;;;29.15;18.88;;;9.30;99.90;;;;;;5010870;28;20547;-70
2023/04/08 12:07:48;;;;;;;26.55;17.38;;;9.30;99.90;;;;;;5011592;28;20022;-69
2023/04/08 12:10:14;;;;;;;28.73;17.85;;;9.40;99.90;;;;;;5019466;28;20049;-69
2023/04/08 12:12:40;;;;;;;25.33;16.60;;;;;;;;;;5016131;28;20022;-69
2023/04/08 12:15:07;;;;;;;25.58;17.27;;;;;;;;;;5015652;28;20421;-69
2023/04/08 12:17:33;;;;;;;24.83;16.55;;;;;;;;;;5001280;28;20037;-69
2023/04/08 12:20:01;;;;;;;23.65;15.63;;;;;;;;;;5009205;28;20785;-69
2023/04/08 12:22:27;;;;;;;23.35;16.17;;;;;;;;;;5016495;28;20072;-69
2023/04/08 12:24:53;;;;;;;23.95;15.18;;;;;;;;;;5016378;28;20633;-69
2023/04/08 12:27:19;;;;;;;22.73;15.00;;;;;;;;;;5020473;28;20029;-69
2023/04/08 12:29:45;;;;;;;24.58;15.82;;;;;;;;;;5014396;28;20025;-69
2023/04/08 12:32:12;;;;;;;26.10;17.38;;;;;;;;;;5013066;28;20021;-69
2023/04/08 12:34:38;;;;;;;25.48;17.27;;;;;;;;;;5013601;28;20029;-69
2023/04/08 12:37:03;;;;;;;25.48;17.50;;;10.80;99.90;;;;;;5009070;28;20034;-70
2023/04/08 12:39:29;;;;;;;26.80;18.17;;;;;;;;;;5011343;28;20390;-69
2023/04/08 12:41:55;;;;;;;31.55;20.58;;;10.80;99.90;;;;;;5012406;28;20709;-69